createdAt,value
2019-04-26T00:00:03.752Z,45.9
2019-04-26T00:05:03.419Z,46.2
2019-04-26T00:10:03.383Z,46.6
2019-04-26T00:15:03.110Z,47.2
2019-04-26T00:20:02.874Z,47.5
2019-04-26T00:25:03.336Z,48.1
2019-04-26T00:30:02.813Z,48.5
2019-04-26T00:35:03.342Z,49
2019-04-26T00:40:03.322Z,49.6
2019-04-26T00:45:02.827Z,50
2019-04-26T00:50:03.382Z,50.7
2019-04-26T00:55:02.861Z,51.1
2019-04-26T01:00:03.324Z,52
2019-04-26T01:05:02.742Z,52.8
2019-04-26T01:10:02.689Z,53.7
2019-04-26T01:15:03.147Z,55
2019-04-26T01:20:02.695Z,56.4
2019-04-26T01:25:03.090Z,58.3
2019-04-26T01:30:05.074Z,64.4
2019-04-26T01:35:02.582Z,64.4
2019-04-26T01:40:02.603Z,68.2
2019-04-26T01:45:03.095Z,73.1
2019-04-26T01:50:02.659Z,79.3
2019-04-26T01:55:03.198Z,84.7
2019-04-26T02:00:02.611Z,90.4
2019-04-26T02:05:03.078Z,93.6
2019-04-26T02:10:02.997Z,98
2019-04-26T02:15:03.442Z,99.9
2019-04-26T02:20:03.042Z,99.9
2019-04-26T02:25:02.559Z,99.9
2019-04-26T02:30:05.638Z,99.9
2019-04-26T02:35:03.094Z,99.9
2019-04-26T02:40:03.014Z,99.9
2019-04-26T02:45:02.501Z,99.9
2019-04-26T02:50:02.910Z,99.9
2019-04-26T02:55:03.356Z,99.9
2019-04-26T03:00:02.920Z,99.9
2019-04-26T03:05:03.433Z,99.9
2019-04-26T03:10:02.628Z,99.9
2019-04-26T03:15:14.603Z,99.9
2019-04-26T03:20:05.743Z,99.9
2019-04-26T03:25:03.247Z,99.9
2019-04-26T03:30:22.545Z,99.9
2019-04-26T03:35:02.735Z,99.9
2019-04-26T03:40:02.688Z,99.9
2019-04-26T03:45:03.184Z,99.9
2019-04-26T03:50:02.680Z,99.9
2019-04-26T03:55:05.731Z,99.9
2019-04-26T04:00:03.255Z,99.9
2019-04-26T04:05:02.732Z,99.9
2019-04-26T04:10:02.707Z,99.9
2019-04-26T04:15:03.201Z,99.9
2019-04-26T04:20:02.731Z,99.9
2019-04-26T04:25:03.220Z,99.9
2019-04-26T04:30:02.674Z,99.9
2019-04-26T04:35:06.946Z,99.9
2019-04-26T04:40:02.895Z,99.9
2019-04-26T04:45:03.471Z,99.9
2019-04-26T04:50:03.012Z,99.9
2019-04-26T04:55:08.387Z,99.9
2019-04-26T05:00:02.892Z,99.9
2019-04-26T05:05:03.399Z,99.9
2019-04-26T05:10:03.406Z,99.9
2019-04-26T05:15:02.885Z,99.9
2019-04-26T05:20:03.490Z,99.9
2019-04-26T05:25:02.989Z,99.9
2019-04-26T05:30:03.475Z,99.9
2019-04-26T05:35:02.988Z,99.9
2019-04-26T05:40:03.011Z,99.9
2019-04-26T05:45:03.476Z,99.9
2019-04-26T05:50:05.394Z,99.9
2019-04-26T05:55:02.933Z,99.9
2019-04-26T06:00:03.468Z,99.9
2019-04-26T06:05:05.498Z,99.9
2019-04-26T06:10:03.430Z,99.9
2019-04-26T06:15:02.900Z,99.9
2019-04-26T06:20:05.994Z,99.9
2019-04-26T06:25:05.971Z,99.9
2019-04-26T06:30:03.687Z,99.9
2019-04-26T06:35:05.682Z,99.9
2019-04-26T06:40:05.170Z,99.9
2019-04-26T06:45:03.099Z,99.9
2019-04-26T06:50:03.710Z,99.9
2019-04-26T06:55:04.230Z,99.9
2019-04-26T07:00:02.811Z,99.9
2019-04-26T07:05:07.125Z,99.9
2019-04-26T07:10:04.282Z,99.9
2019-04-26T07:15:06.022Z,99.9
2019-04-26T07:20:07.684Z,99.9
2019-04-26T07:25:03.775Z,99.9
2019-04-26T07:30:05.207Z,99.9
2019-04-26T07:35:02.994Z,99.9
2019-04-26T07:40:05.552Z,99.9
2019-04-26T07:45:03.976Z,99.9
2019-04-26T07:50:05.155Z,99.9
2019-04-26T07:55:04.957Z,99.9
2019-04-26T08:00:04.482Z,99.9
2019-04-26T08:05:05.791Z,99.9
2019-04-26T08:10:05.912Z,99.9
2019-04-26T08:15:06.009Z,99.9
2019-04-26T08:20:05.442Z,99.9
2019-04-26T08:25:03.099Z,99.9
2019-04-26T08:30:14.196Z,99.9
2019-04-26T08:35:15.849Z,99.9
2019-04-26T08:40:03.322Z,99.9
2019-04-26T08:45:09.173Z,99.9
2019-04-26T08:50:02.865Z,99.9
2019-04-26T08:55:03.367Z,99.9
2019-04-26T09:00:02.851Z,99.9
2019-04-26T09:05:03.391Z,99.9
2019-04-26T09:10:11.498Z,99.9
2019-04-26T09:15:03.053Z,99.9
2019-04-26T09:20:09.340Z,99.9
2019-04-26T09:25:02.892Z,99.9
2019-04-26T09:30:06.332Z,99.9
2019-04-26T09:35:02.985Z,99.9
2019-04-26T09:40:10.956Z,99.9
2019-04-26T09:45:02.571Z,99.9
2019-04-26T09:50:03.044Z,99.9
2019-04-26T09:55:03.448Z,99.9
2019-04-26T10:00:02.926Z,99.9
2019-04-26T10:05:03.423Z,99.9
2019-04-26T10:10:03.432Z,99.9
2019-04-26T10:15:02.902Z,99.9
2019-04-26T10:20:03.474Z,99.9
2019-04-26T10:25:16.261Z,97.4
2019-04-26T10:30:09.560Z,93.8
2019-04-26T10:35:03.077Z,94.7
2019-04-26T10:40:03.000Z,96.2
2019-04-26T10:45:03.481Z,95.5
2019-04-26T10:50:05.449Z,95
2019-04-26T10:55:02.881Z,95.1
2019-04-26T11:00:03.356Z,98.8
2019-04-26T11:05:02.756Z,94.8
2019-04-26T11:10:03.277Z,91.7
2019-04-26T11:15:02.790Z,86
2019-04-26T11:20:10.299Z,83.6
2019-04-26T11:25:03.197Z,74.4
2019-04-26T11:30:19.037Z,76
2019-04-26T11:35:03.207Z,68.1
2019-04-26T11:40:03.087Z,69.5
2019-04-26T11:45:10.640Z,69.5
2019-04-26T11:50:02.774Z,71.4
2019-04-26T11:55:03.269Z,71.4
2019-04-26T12:00:06.645Z,71.6
2019-04-26T12:05:03.196Z,70.4
2019-04-26T12:10:09.707Z,72.5
2019-04-26T12:15:08.396Z,70.2
2019-04-26T12:20:03.478Z,69.6
2019-04-26T12:25:08.260Z,69.3
2019-04-26T12:30:05.448Z,67.9
2019-04-26T12:35:05.505Z,65.1
2019-04-26T12:40:02.568Z,65.2
2019-04-26T12:45:03.102Z,66.3
2019-04-26T12:50:02.667Z,66.8
2019-04-26T12:55:05.743Z,65.6
2019-04-26T13:00:03.925Z,65.7
2019-04-26T13:05:03.394Z,65
2019-04-26T13:10:03.361Z,64.2
2019-04-26T13:15:05.396Z,58.9
2019-04-26T13:20:03.027Z,58.6
2019-04-26T13:25:03.424Z,59.1
2019-04-26T13:30:10.354Z,57.8
2019-04-26T13:35:02.980Z,55.6
2019-04-26T13:40:02.970Z,54.7
2019-04-26T13:45:03.373Z,55.8
2019-04-26T13:50:07.899Z,52.1
2019-04-26T13:55:03.314Z,52
2019-04-26T14:00:11.577Z,48.6
2019-04-26T14:05:03.212Z,47.5
2019-04-26T14:10:03.062Z,46.5
2019-04-26T14:15:08.339Z,45.3
2019-04-26T14:20:03.230Z,42.6
2019-04-26T14:25:02.648Z,41.3
2019-04-26T14:30:08.191Z,41.8
2019-04-26T14:35:02.746Z,42.4
2019-04-26T14:40:17.764Z,42.5
2019-04-26T14:45:07.344Z,42.5
2019-04-26T14:50:14.629Z,43.5
2019-04-26T14:55:06.229Z,48
2019-04-26T15:00:04.778Z,48
2019-04-26T15:05:09.421Z,49.5
2019-04-26T15:10:10.885Z,45.7
2019-04-26T15:15:05.099Z,45.5
2019-04-26T15:20:03.603Z,45.5
2019-04-26T15:25:03.678Z,45
2019-04-26T15:30:04.522Z,46.1
2019-04-26T15:35:03.077Z,45
2019-04-26T15:40:03.035Z,45.7
2019-04-26T15:45:03.695Z,45.7
2019-04-26T15:50:10.863Z,46.1
2019-04-26T15:55:08.417Z,47.3
2019-04-26T16:00:04.536Z,47.3
2019-04-26T16:05:05.559Z,51.1
2019-04-26T16:10:04.481Z,51.1
2019-04-26T16:15:11.286Z,52.6
2019-04-26T16:20:02.783Z,53.1
2019-04-26T16:25:05.558Z,54.7
2019-04-26T16:30:03.267Z,56.1
2019-04-26T16:35:05.306Z,59.6
2019-04-26T16:40:12.254Z,63.3
2019-04-26T16:45:07.835Z,62.8
2019-04-26T16:50:03.953Z,64.5
2019-04-26T16:55:04.419Z,68.2
2019-04-26T17:00:05.182Z,73.1
2019-04-26T17:05:17.214Z,79.3
2019-04-26T17:10:05.064Z,85.4
2019-04-26T17:15:03.648Z,89.6
2019-04-26T17:20:10.773Z,97.9
2019-04-26T17:25:02.795Z,97.7
2019-04-26T17:30:03.347Z,99.9
2019-04-26T17:35:07.683Z,99.9
2019-04-26T17:40:02.653Z,99.9
2019-04-26T17:45:07.307Z,99.9
2019-04-26T17:50:06.627Z,99.9
2019-04-26T17:55:03.153Z,99.9
2019-04-26T18:00:11.993Z,99.9
2019-04-26T18:05:03.876Z,99.9
2019-04-26T18:10:08.221Z,99.9
2019-04-26T18:15:10.183Z,99.9
2019-04-26T18:20:08.086Z,99.9
2019-04-26T18:25:12.531Z,99.9
2019-04-26T18:30:14.141Z,99.9
2019-04-26T18:35:02.747Z,99.9
2019-04-26T18:40:04.928Z,99.9
2019-04-26T18:45:05.819Z,99.9
2019-04-26T18:50:03.374Z,99.9
2019-04-26T18:55:05.871Z,99.9
2019-04-26T19:00:04.330Z,99.9
2019-04-26T19:05:03.979Z,99.9
2019-04-26T19:10:05.635Z,99.9
2019-04-26T19:15:07.796Z,99.9
2019-04-26T19:20:06.008Z,99.9
2019-04-26T19:25:03.542Z,99.9
2019-04-26T19:30:10.990Z,99.9
2019-04-26T19:35:14.623Z,99.9
2019-04-26T19:40:10.088Z,99.9
2019-04-26T19:45:19.227Z,99.9
2019-04-26T19:50:11.360Z,99.9
2019-04-26T19:55:03.245Z,99.9
2019-04-26T20:00:07.996Z,99.9
2019-04-26T20:05:07.821Z,99.9
2019-04-26T20:10:05.432Z,99.9
2019-04-26T20:15:05.448Z,99.9
2019-04-26T20:20:16.504Z,99.9
2019-04-26T20:25:08.285Z,99.9
2019-04-26T20:30:02.864Z,99.9
2019-04-26T20:35:03.361Z,99.9
2019-04-26T20:40:23.113Z,99.9
2019-04-26T20:45:08.358Z,99.9
2019-04-26T20:50:03.325Z,99.9
2019-04-26T20:55:05.381Z,99.9
2019-04-26T21:00:05.828Z,99.9
2019-04-26T21:05:11.010Z,99.9
2019-04-26T21:10:03.455Z,99.9
2019-04-26T21:15:02.920Z,99.9
2019-04-26T21:20:03.504Z,99.9
2019-04-26T21:25:04.986Z,99.9
2019-04-26T21:30:03.771Z,99.9
2019-04-26T21:35:03.832Z,99.9
2019-04-26T21:40:04.173Z,99.9
2019-04-26T21:45:03.779Z,99.9
2019-04-26T21:50:04.481Z,99.9
2019-04-26T21:55:04.566Z,99.9
2019-04-26T22:00:04.443Z,99.9
2019-04-26T22:05:07.937Z,99.9
2019-04-26T22:10:09.265Z,99.9
2019-04-26T22:15:03.749Z,99.9
2019-04-26T22:20:14.368Z,99.9
2019-04-26T22:25:04.030Z,99.9
2019-04-26T22:30:03.562Z,99.9
2019-04-26T22:35:03.475Z,99.9
2019-04-26T22:40:03.962Z,99.9
2019-04-26T22:45:10.527Z,99.9
2019-04-26T22:50:03.048Z,99.9
2019-04-26T22:55:04.283Z,99.9
2019-04-26T23:00:05.321Z,99.9
2019-04-26T23:05:06.138Z,99.9
2019-04-26T23:10:04.456Z,99.9
2019-04-26T23:15:03.466Z,99.9
2019-04-26T23:20:03.379Z,99.9
2019-04-26T23:25:03.716Z,99.9
2019-04-26T23:30:05.746Z,99.9
2019-04-26T23:35:06.310Z,99.9
2019-04-26T23:40:04.194Z,99.9
2019-04-26T23:45:04.857Z,99.9
2019-04-26T23:50:03.857Z,99.9
2019-04-26T23:55:09.136Z,99.9
